Time;durP1;ratioP1;P1;durP2;ratioP2;P2;SDS_P1;SDS_P2;PMS_P1;PMS_P2;Temp;Humidity;BMP_temperature;BMP_pressure;BME280_temperature;BME280_humidity;BME280_pressure;Samples;Min_cycle;Max_cycle;Signal;HPM_P1;HPM_P2
2022/09/14 00:02:23;;;;;;;1999.90;999.90;;;;;;;;;;4978589;28;20233;-69
2022/09/14 00:04:51;;;;;;;1999.90;999.90;;;;;;;;;;4996165;28;21022;-69
2022/09/14 00:07:19;;;;;;;1999.90;999.90;;;;;;;;;;5012448;28;20233;-69
2022/09/14 00:09:47;;;;;;;1999.90;999.90;;;;;;;;;;4994812;28;20234;-70
2022/09/14 00:12:15;;;;;;;1999.90;999.90;;;;;;;;;;4993145;28;20323;-72
2022/09/14 00:14:45;;;;;;;1999.90;999.90;;;;;;;;;;4995091;28;20236;-72
2022/09/14 00:17:12;;;;;;;1999.90;999.90;;;;;;;;;;4994195;28;20232;-69
2022/09/14 00:19:40;;;;;;;1999.90;999.90;;;;;;;;;;4980088;28;20712;-69
2022/09/14 00:22:08;;;;;;;1999.90;999.90;;;;;;;;;;4995126;28;20230;-70
2022/09/14 00:24:35;;;;;;;1999.90;999.90;;;;;;;;;;5009087;28;20407;-70
2022/09/14 00:27:03;;;;;;;1999.90;999.90;;;;;;;;;;5012031;28;20416;-70
2022/09/14 00:29:32;;;;;;;1999.90;999.90;;;;;;;;;;4992694;28;20320;-70
2022/09/14 00:32:01;;;;;;;1999.90;999.90;;;;;;;;;;4994132;28;20265;-69
2022/09/14 00:34:29;;;;;;;1999.90;999.90;;;;;;;;;;4994332;28;20407;-70
2022/09/14 00:36:57;;;;;;;1999.90;999.90;;;;;;;;;;4994318;28;20249;-69
2022/09/14 00:39:26;;;;;;;1999.90;999.90;;;;;;;;;;4994827;28;20237;-70
2022/09/14 00:41:54;;;;;;;1999.90;999.90;;;;;;;;;;4994541;28;20230;-73
2022/09/14 00:44:41;;;;;;;1999.90;999.90;;;;;;;;;;4993016;28;20464;-70
2022/09/14 00:47:12;;;;;;;1999.90;999.90;;;;;;;;;;4995533;28;20412;-70
2022/09/14 00:49:40;;;;;;;1999.90;999.90;;;;;;;;;;5007575;28;20482;-70
2022/09/14 00:52:10;;;;;;;1999.90;999.90;;;;;;;;;;4994980;28;20238;-70
2022/09/14 00:54:38;;;;;;;1999.90;999.90;;;;;;;;;;4999341;28;20326;-70
2022/09/14 00:57:05;;;;;;;1999.90;999.90;;;;;;;;;;4979255;28;20459;-71
2022/09/14 00:59:35;;;;;;;1999.90;999.90;;;;;;;;;;4979771;28;20693;-71
2022/09/14 01:02:03;;;;;;;1999.90;999.90;;;;;;;;;;4986277;28;20390;-71
2022/09/14 01:04:32;;;;;;;1999.90;999.90;;;;;;;;;;4999221;28;20234;-70
2022/09/14 01:07:03;;;;;;;1999.90;999.90;;;;;;;;;;5015064;28;20257;-70
2022/09/14 01:09:35;;;;;;;1999.90;999.90;;;;;;;;;;5000005;28;20328;-71
2022/09/14 01:12:09;;;;;;;1999.90;999.90;;;;;;;;;;4995079;28;20412;-70
2022/09/14 01:14:40;;;;;;;1999.90;999.90;;;;;;;;;;5008687;28;20882;-71
2022/09/14 01:17:14;;;;;;;1999.90;999.90;;;;;;;;;;4996719;28;20408;-71
2022/09/14 01:19:50;;;;;;;1999.90;999.90;;;;;;;;;;5012623;28;20403;-70
2022/09/14 01:22:20;;;;;;;1999.90;999.90;;;;;;;;;;4979117;28;20311;-70
2022/09/14 01:24:52;;;;;;;1999.90;999.90;;;;;;;;;;4995114;28;20249;-71
2022/09/14 01:27:23;;;;;;;1999.90;999.90;;;;;;;;;;5003189;28;20237;-70
2022/09/14 01:29:54;;;;;;;1999.90;999.90;;;;;;;;;;5014298;28;20332;-71
2022/09/14 01:32:24;;;;;;;1999.90;999.90;;;;;;;;;;4998869;28;20439;-71
2022/09/14 01:34:55;;;;;;;1999.90;999.90;;;;;;;;;;4998136;28;20324;-70
2022/09/14 01:37:25;;;;;;;1999.90;999.90;;;;;;;;;;5000639;28;20447;-71
2022/09/14 01:39:55;;;;;;;1999.90;999.90;;;;;;;;;;4994566;28;20434;-70
2022/09/14 01:42:26;;;;;;;1999.90;999.90;;;;;;;;;;5012117;28;20427;-71
2022/09/14 01:44:55;;;;;;;1999.90;999.90;;;;;;;;;;4996641;28;20421;-70
2022/09/14 01:47:25;;;;;;;1999.90;999.90;;;;;;;;;;4998931;28;20412;-70
2022/09/14 01:49:57;;;;;;;1999.90;999.90;;;;;;;;;;4995589;28;20909;-71
2022/09/14 01:52:26;;;;;;;1999.90;999.90;;;;;;;;;;4999182;28;20427;-70
2022/09/14 01:54:57;;;;;;;1999.90;999.90;;;;;;;;;;4996362;28;20887;-70
2022/09/14 01:57:28;;;;;;;1999.90;999.90;;;;;;;;;;5000203;28;20419;-71
2022/09/14 01:59:58;;;;;;;1999.90;999.90;;;;;;;;;;4992327;28;20446;-70
2022/09/14 02:02:27;;;;;;;1999.90;999.90;;;;;;;;;;4991547;28;20411;-70
2022/09/14 02:04:57;;;;;;;1999.90;999.90;;;;;;;;;;5009858;28;20763;-70
2022/09/14 02:07:25;;;;;;;1999.90;999.90;;;;;;;;;;4991976;28;22574;-69
2022/09/14 02:09:54;;;;;;;1999.90;999.90;;;;;;;;;;4994372;28;20514;-71
2022/09/14 02:12:22;;;;;;;1999.90;999.90;;;;;;;;;;4993727;28;20538;-71
2022/09/14 02:15:09;;;;;;;1999.90;999.90;;;;;;;;;;4995775;28;20221;-71
2022/09/14 02:17:37;;;;;;;1999.90;999.90;;;;;;;;;;4996443;28;20292;-71
2022/09/14 02:20:06;;;;;;;1999.90;999.90;;;;;;;;;;4979307;28;20233;-71
2022/09/14 02:22:34;;;;;;;1999.90;999.90;;;;;;;;;;5012475;28;20233;-70
2022/09/14 02:25:02;;;;;;;1999.90;999.90;;;;;;;;;;4993160;28;20273;-69
2022/09/14 02:27:30;;;;;;;1999.90;999.90;;;;;;;;;;4994436;28;20367;-70
2022/09/14 02:29:58;;;;;;;1999.90;999.90;;;;;;;;;;5011006;28;20842;-70
2022/09/14 02:32:31;;;;;;;1999.90;999.90;;;;;;;;;;4993691;28;20808;-69
2022/09/14 02:35:04;;;;;;;1999.90;999.90;;;;;;;;;;4996257;28;20241;-70
2022/09/14 02:37:36;;;;;;;1999.90;999.90;;;;;;;;;;4998737;28;20230;-69
2022/09/14 02:40:10;;;;;;;1999.90;999.90;;;;;;;;;;4998152;28;20229;-70
2022/09/14 02:42:41;;;;;;;1999.90;999.90;;;;;;;;;;4994457;28;20288;-70
2022/09/14 02:45:11;;;;;;;1999.90;999.90;;;;;;;;;;4992223;28;20242;-70
2022/09/14 02:47:48;;;;;;;1999.90;999.90;;;;;;;;;;5001358;28;20237;-71
2022/09/14 02:50:19;;;;;;;1999.90;999.90;;;;;;;;;;5001668;28;20237;-71
2022/09/14 02:52:48;;;;;;;1999.90;999.90;;;;;;;;;;4976854;28;20340;-71
2022/09/14 02:55:18;;;;;;;1999.90;999.90;;;;;;;;;;5002905;28;20230;-71
2022/09/14 02:57:58;;;;;;;1999.90;999.90;;;;;;;;;;4996745;28;20323;-71
2022/09/14 03:00:27;;;;;;;1999.90;999.90;;;;;;;;;;4996809;28;20292;-71
2022/09/14 03:02:56;;;;;;;1999.90;999.90;;;;;;;;;;4999004;28;20229;-70
2022/09/14 03:05:24;;;;;;;1999.90;999.90;;;;;;;;;;4999539;28;20270;-70
2022/09/14 03:07:51;;;;;;;1999.90;999.90;;;;;;;;;;4994461;28;20280;-70
2022/09/14 03:10:19;;;;;;;1999.90;999.90;;;;;;;;;;4997445;28;20238;-70
2022/09/14 03:12:47;;;;;;;1999.90;999.90;;;;;;;;;;4996944;28;20317;-70
2022/09/14 03:15:15;;;;;;;1999.90;999.90;;;;;;;;;;4995619;28;20232;-70
2022/09/14 03:17:45;;;;;;;1999.90;999.90;;;;;;;;;;4985205;28;20281;-70
2022/09/14 03:20:14;;;;;;;1999.90;999.90;;;;;;;;;;5010462;28;20241;-70
2022/09/14 03:22:42;;;;;;;1999.90;999.90;;;;;;;;;;4992494;28;20704;-69
2022/09/14 03:25:10;;;;;;;1999.90;999.90;;;;;;;;;;4991455;28;20415;-70
2022/09/14 03:27:38;;;;;;;1999.90;999.90;;;;;;;;;;4996051;28;20280;-69
2022/09/14 03:30:06;;;;;;;1999.90;999.90;;;;;;;;;;4995575;28;20251;-70
2022/09/14 03:32:34;;;;;;;1999.90;999.90;;;;;;;;;;4994815;28;20234;-71
2022/09/14 03:35:02;;;;;;;1999.90;999.90;;;;;;;;;;4996107;28;20234;-70
2022/09/14 03:37:31;;;;;;;1999.90;999.90;;;;;;;;;;4993260;28;20230;-69
2022/09/14 03:39:59;;;;;;;1999.90;999.90;;;;;;;;;;4995404;28;20254;-70
2022/09/14 03:42:27;;;;;;;1999.90;999.90;;;;;;;;;;4996538;28;20293;-70
2022/09/14 03:44:54;;;;;;;1999.90;999.90;;;;;;;;;;4995499;28;20595;-70
2022/09/14 03:47:22;;;;;;;1999.90;999.90;;;;;;;;;;4996836;28;20637;-71
2022/09/14 03:49:51;;;;;;;1999.90;999.90;;;;;;;;;;4992930;28;20308;-70
2022/09/14 03:52:19;;;;;;;1999.90;999.90;;;;;;;;;;4995694;28;20770;-70
2022/09/14 03:54:48;;;;;;;1999.90;999.90;;;;;;;;;;4993819;28;20313;-70
2022/09/14 03:57:15;;;;;;;1999.90;999.90;;;;;;;;;;4996084;28;20261;-71
2022/09/14 03:59:43;;;;;;;1999.90;999.90;;;;;;;;;;4993961;28;20230;-73
2022/09/14 04:02:11;;;;;;;1999.90;999.90;;;;;;;;;;4994056;28;20233;-71
2022/09/14 04:04:38;;;;;;;1999.90;999.90;;;;;;;;;;4997006;28;20245;-71
2022/09/14 04:07:06;;;;;;;1999.90;999.90;;;;;;;;;;4994440;28;20234;-71
2022/09/14 04:09:34;;;;;;;1999.90;999.90;;;;;;;;;;4992451;28;20245;-72
2022/09/14 04:12:03;;;;;;;1999.90;999.90;;;;;;;;;;4993204;28;20293;-72
2022/09/14 04:14:31;;;;;;;1999.90;999.90;;;;;;;;;;4998006;28;20344;-72
2022/09/14 04:16:58;;;;;;;1999.90;999.90;;;;;;;;;;4993303;28;20767;-72
2022/09/14 04:19:26;;;;;;;1999.90;999.90;;;;;;;;;;4998176;28;20234;-71
2022/09/14 04:21:53;;;;;;;1999.90;999.90;;;;;;;;;;4996643;28;20368;-72
2022/09/14 04:24:21;;;;;;;1999.90;999.90;;;;;;;;;;4999658;28;20296;-72
2022/09/14 04:26:55;;;;;;;1999.90;999.90;;;;;;;;;;4997168;28;20240;-72
2022/09/14 04:29:24;;;;;;;1999.90;999.90;;;;;;;;;;4999405;28;20266;-72
2022/09/14 04:31:52;;;;;;;1999.90;999.90;;;;;;;;;;5001304;28;20246;-72
2022/09/14 04:34:20;;;;;;;1999.90;999.90;;;;;;;;;;5002285;28;20265;-72
2022/09/14 04:36:47;;;;;;;1999.90;999.90;;;;;;;;;;5015571;28;20509;-72
2022/09/14 04:39:15;;;;;;;1999.90;999.90;;;;;;;;;;5002139;28;20328;-71
2022/09/14 04:41:43;;;;;;;1999.90;999.90;;;;;;;;;;4997359;28;20312;-72
2022/09/14 04:44:11;;;;;;;1999.90;999.90;;;;;;;;;;4995675;28;20280;-72
2022/09/14 04:46:41;;;;;;;1999.90;999.90;;;;;;;;;;4993273;28;20237;-71
2022/09/14 04:49:14;;;;;;;1999.90;999.90;;;;;;;;;;5012861;28;20237;-74
2022/09/14 04:51:42;;;;;;;1999.90;999.90;;;;;;;;;;4994970;28;20242;-73
2022/09/14 04:54:09;;;;;;;1999.90;999.90;;;;;;;;;;4998512;28;20333;-73
2022/09/14 04:56:37;;;;;;;1999.90;999.90;;;;;;;;;;5002675;28;20229;-74
2022/09/14 04:59:07;;;;;;;1999.90;999.90;;;;;;;;;;5003656;28;20233;-74
2022/09/14 05:01:35;;;;;;;1999.90;999.90;;;;;;;;;;5001827;28;21109;-74
2022/09/14 05:04:05;;;;;;;1999.90;999.90;;;;;;;;;;5002008;28;20229;-73
2022/09/14 05:06:34;;;;;;;1999.90;999.90;;;;;;;;;;5001077;28;20719;-73
2022/09/14 05:09:03;;;;;;;1999.90;999.90;;;;;;;;;;5002139;28;20350;-74
2022/09/14 05:11:31;;;;;;;1999.90;999.90;;;;;;;;;;5004185;28;20242;-73
2022/09/14 05:14:00;;;;;;;1999.90;999.90;;;;;;;;;;5003030;28;20261;-73
2022/09/14 05:16:28;;;;;;;1999.90;999.90;;;;;;;;;;4999459;28;20510;-73
2022/09/14 05:18:57;;;;;;;1999.90;999.90;;;;;;;;;;5002192;28;20266;-73
2022/09/14 05:21:26;;;;;;;1999.90;999.90;;;;;;;;;;5001843;28;20236;-72
2022/09/14 05:23:55;;;;;;;1999.90;999.90;;;;;;;;;;4999755;28;20230;-73
2022/09/14 05:26:23;;;;;;;1999.90;999.90;;;;;;;;;;5003263;28;20325;-73
2022/09/14 05:28:52;;;;;;;1999.90;999.90;;;;;;;;;;4983139;28;20915;-73
2022/09/14 05:31:20;;;;;;;1999.90;999.90;;;;;;;;;;5002692;28;20237;-73
2022/09/14 05:33:48;;;;;;;1999.90;999.90;;;;;;;;;;5003442;28;20654;-73
2022/09/14 05:36:15;;;;;;;1999.90;999.90;;;;;;;;;;5005087;28;20240;-73
2022/09/14 05:38:44;;;;;;;1999.90;999.90;;;;;;;;;;5003736;28;20242;-73
2022/09/14 05:41:13;;;;;;;1999.90;999.90;;;;;;;;;;5001200;28;20253;-73
2022/09/14 05:43:41;;;;;;;1999.90;999.90;;;;;;;;;;5004227;28;20237;-73
2022/09/14 05:46:10;;;;;;;1999.90;999.90;;;;;;;;;;5021308;28;20241;-73
2022/09/14 05:48:39;;;;;;;1999.90;999.90;;;;;;;;;;5001887;28;20724;-73
2022/09/14 05:51:11;;;;;;;1999.90;999.90;;;;;;;;;;5002719;28;20289;-73
2022/09/14 05:53:38;;;;;;;1999.90;999.90;;;;;;;;;;5005345;28;20313;-73
2022/09/14 05:56:10;;;;;;;1999.90;999.90;;;;;;;;;;5002218;28;20284;-73
2022/09/14 05:58:38;;;;;;;1999.90;999.90;;;;;;;;;;5002876;28;20289;-72
2022/09/14 06:01:06;;;;;;;1999.90;999.90;;;;;;;;;;5003935;28;20298;-72
2022/09/14 06:03:34;;;;;;;1999.90;999.90;;;;;;;;;;5002355;28;20241;-73
2022/09/14 06:06:02;;;;;;;1999.90;999.90;;;;;;;;;;5001514;28;20240;-73
2022/09/14 06:08:30;;;;;;;1999.90;999.90;;;;;;;;;;5001778;28;20242;-72
2022/09/14 06:11:02;;;;;;;1999.90;999.90;;;;;;;;;;5001990;28;21071;-73
2022/09/14 06:13:31;;;;;;;1999.90;999.90;;;;;;;;;;4993788;28;20309;-73
2022/09/14 06:16:01;;;;;;;1999.90;999.90;;;;;;;;;;4996148;28;20410;-73
2022/09/14 06:18:29;;;;;;;1999.90;999.90;;;;;;;;;;5000235;28;20700;-73
2022/09/14 06:20:57;;;;;;;1999.90;999.90;;;;;;;;;;5002352;28;20285;-73
2022/09/14 06:23:26;;;;;;;1999.90;999.90;;;;;;;;;;5002638;28;20226;-72
2022/09/14 06:25:54;;;;;;;1999.90;999.90;;;;;;;;;;4997588;28;20277;-73
2022/09/14 06:28:22;;;;;;;1999.90;999.90;;;;;;;;;;5003344;28;20241;-73
2022/09/14 06:30:51;;;;;;;1999.90;999.90;;;;;;;;;;5001514;28;20987;-73
2022/09/14 06:33:19;;;;;;;1999.90;999.90;;;;;;;;;;5003112;28;20235;-73
2022/09/14 06:35:54;;;;;;;1999.90;999.90;;;;;;;;;;5017781;28;20245;-74
2022/09/14 06:38:21;;;;;;;1999.90;999.90;;;;;;;;;;4998872;28;21145;-73
2022/09/14 06:40:53;;;;;;;1999.90;999.90;;;;;;;;;;5017251;28;20238;-73
2022/09/14 06:43:20;;;;;;;1999.90;999.90;;;;;;;;;;5001723;28;20234;-74
2022/09/14 06:45:56;;;;;;;1999.90;999.90;;;;;;;;;;5017367;28;20229;-73
2022/09/14 06:48:24;;;;;;;1999.90;999.90;;;;;;;;;;5001595;28;20241;-73
2022/09/14 06:50:52;;;;;;;1999.90;999.90;;;;;;;;;;5000215;28;20488;-73
2022/09/14 06:53:19;;;;;;;1999.90;999.90;;;;;;;;;;5001861;28;20230;-73
2022/09/14 06:55:47;;;;;;;1999.90;999.90;;;;;;;;;;5002335;28;20285;-75
2022/09/14 06:58:15;;;;;;;1999.90;999.90;;;;;;;;;;5004875;28;20226;-73
2022/09/14 07:00:42;;;;;;;1999.90;999.90;;;;;;;;;;5001036;28;20352;-72
2022/09/14 07:03:11;;;;;;;1999.90;999.90;;;;;;;;;;4999439;28;20232;-73
2022/09/14 07:05:39;;;;;;;1999.90;999.90;;;;;;;;;;4995582;28;20257;-73
2022/09/14 07:08:07;;;;;;;1999.90;999.90;;;;;;;;;;5003034;28;20237;-72
2022/09/14 07:10:39;;;;;;;1999.90;999.90;;;;;;;;;;5003344;28;20369;-75
2022/09/14 07:13:06;;;;;;;1999.90;999.90;;;;;;;;;;5002564;28;20226;-73
2022/09/14 07:15:34;;;;;;;1999.90;999.90;;;;;;;;;;5018285;28;20754;-71
2022/09/14 07:18:02;;;;;;;1999.90;999.90;;;;;;;;;;5002127;28;20314;-73
2022/09/14 07:20:30;;;;;;;1999.90;999.90;;;;;;;;;;5016991;28;20316;-73
2022/09/14 07:22:58;;;;;;;1999.90;999.90;;;;;;;;;;5004234;28;20261;-72
2022/09/14 07:25:26;;;;;;;1999.90;999.90;;;;;;;;;;5003070;28;20233;-73
2022/09/14 07:27:54;;;;;;;1999.90;999.90;;;;;;;;;;4994032;28;20237;-73
2022/09/14 07:30:23;;;;;;;1999.90;999.90;;;;;;;;;;5000312;28;20352;-73
2022/09/14 07:32:51;;;;;;;1999.90;999.90;;;;;;;;;;5001130;28;20234;-74
2022/09/14 07:35:19;;;;;;;1999.90;999.90;;;;;;;;;;4985640;28;20731;-74
2022/09/14 07:37:48;;;;;;;1999.90;999.90;;;;;;;;;;4997212;28;20749;-75
2022/09/14 07:40:15;;;;;;;1999.90;999.90;;;;;;;;;;4999088;28;20244;-74
2022/09/14 07:42:43;;;;;;;1999.90;999.90;;;;;;;;;;5000767;28;21285;-74
2022/09/14 07:45:11;;;;;;;1999.90;999.90;;;;;;;;;;5000068;28;20261;-74
2022/09/14 07:47:38;;;;;;;1999.90;999.90;;;;;;;;;;5001083;28;20288;-74
2022/09/14 07:50:06;;;;;;;1999.90;999.90;;;;;;;;;;5000180;28;20292;-73
2022/09/14 07:52:37;;;;;;;1999.90;999.90;;;;;;;;;;4997010;28;20483;-73
2022/09/14 07:55:08;;;;;;;1999.90;999.90;;;;;;;;;;5001255;28;20715;-74
2022/09/14 07:57:35;;;;;;;1999.90;999.90;;;;;;;;;;5003880;28;20226;-73
2022/09/14 08:00:22;;;;;;;1999.90;999.90;;;;;;;;;;5002268;28;20343;-74
2022/09/14 08:02:54;;;;;;;1999.90;999.90;;;;;;;;;;5002145;28;20226;-73
2022/09/14 08:05:22;;;;;;;1999.90;999.90;;;;;;;;;;5002609;28;21103;-73
2022/09/14 08:07:53;;;;;;;1999.90;999.90;;;;;;;;;;5002883;28;20234;-74
2022/09/14 08:10:22;;;;;;;1999.90;999.90;;;;;;;;;;5000008;28;20250;-74
2022/09/14 08:12:50;;;;;;;1999.90;999.90;;;;;;;;;;5017636;28;20233;-74
2022/09/14 08:15:18;;;;;;;1999.90;999.90;;;;;;;;;;5002296;28;20233;-73
2022/09/14 08:17:46;;;;;;;1999.90;999.90;;;;;;;;;;5000296;28;20233;-72
2022/09/14 08:20:15;;;;;;;1999.90;999.90;;;;;;;;;;5000351;28;20239;-74
2022/09/14 08:22:43;;;;;;;1999.90;999.90;;;;;;;;;;5000409;28;20309;-74
2022/09/14 08:25:11;;;;;;;1999.90;999.90;;;;;;;;;;5000244;28;20241;-74
2022/09/14 08:27:40;;;;;;;1999.90;999.90;;;;;;;;;;5000668;28;20337;-73
2022/09/14 08:30:09;;;;;;;1999.90;999.90;;;;;;;;;;4999064;28;20230;-75
2022/09/14 08:32:36;;;;;;;1999.90;999.90;;;;;;;;;;4999594;28;20232;-74
2022/09/14 08:35:06;;;;;;;1999.90;999.90;;;;;;;;;;5001105;28;20328;-74
2022/09/14 08:37:33;;;;;;;1999.90;999.90;;;;;;;;;;5001606;28;20232;-74
2022/09/14 08:40:01;;;;;;;1999.90;999.90;;;;;;;;;;5000946;28;20244;-73
2022/09/14 08:42:29;;;;;;;1999.90;999.90;;;;;;;;;;4998279;28;20454;-73
2022/09/14 08:45:00;;;;;;;1999.90;999.90;;;;;;;;;;5000506;28;20226;-75
2022/09/14 08:47:33;;;;;;;1999.90;999.90;;;;;;;;;;5000626;28;20233;-74
2022/09/14 08:50:02;;;;;;;1999.90;999.90;;;;;;;;;;4999252;28;20324;-75
2022/09/14 08:52:32;;;;;;;1999.90;999.90;;;;;;;;;;4998315;28;20321;-74
2022/09/14 08:55:01;;;;;;;1999.90;999.90;;;;;;;;;;5000404;28;20232;-74
2022/09/14 08:57:32;;;;;;;1999.90;999.90;;;;;;;;;;5002072;28;20237;-74
2022/09/14 09:00:05;;;;;;;1999.90;999.90;;;;;;;;;;5003878;28;20784;-74
2022/09/14 09:02:42;;;;;;;1999.90;999.90;;;;;;;;;;5000378;28;20273;-74
2022/09/14 09:05:25;;;;;;;1999.90;999.90;;;;;;;;;;5002986;28;20226;-73
2022/09/14 09:07:56;;;;;;;1999.90;999.90;;;;;;;;;;5016652;28;20237;-73
2022/09/14 09:10:25;;;;;;;1999.90;999.90;;;;;;;;;;5001251;28;20530;-73
2022/09/14 09:12:54;;;;;;;1999.90;999.90;;;;;;;;;;5001058;28;20226;-75
2022/09/14 09:15:25;;;;;;;1999.90;999.90;;;;;;;;;;5003015;28;20225;-73
2022/09/14 09:17:54;;;;;;;1999.90;999.90;;;;;;;;;;4999987;28;20236;-74
2022/09/14 09:20:23;;;;;;;1999.90;999.90;;;;;;;;;;5002754;28;20308;-74
2022/09/14 09:22:54;;;;;;;1999.90;999.90;;;;;;;;;;5003371;28;20226;-74
2022/09/14 09:25:23;;;;;;;1999.90;999.90;;;;;;;;;;5005610;28;20739;-76
2022/09/14 09:27:53;;;;;;;1999.90;999.90;;;;;;;;;;5004887;28;20237;-74
2022/09/14 09:30:22;;;;;;;1999.90;999.90;;;;;;;;;;5001891;28;20268;-74
2022/09/14 09:32:50;;;;;;;1999.90;999.90;;;;;;;;;;5019584;28;20723;-74
2022/09/14 09:35:35;;;;;;;1999.90;999.90;;;;;;;;;;5004089;28;20233;-74
2022/09/14 09:38:23;;;;;;;1999.90;999.90;;;;;;;;;;5004395;28;20724;-73
2022/09/14 09:40:53;;;;;;;1999.90;999.90;;;;;;;;;;5019027;28;20230;-74
2022/09/14 09:43:22;;;;;;;1999.90;999.90;;;;;;;;;;5002877;28;20236;-73
2022/09/14 09:46:11;;;;;;;1999.90;999.90;;;;;;;;;;5004365;28;20229;-74
2022/09/14 09:48:40;;;;;;;1999.90;999.90;;;;;;;;;;5003799;28;20242;-74
2022/09/14 09:51:10;;;;;;;1999.90;999.90;;;;;;;;;;5004979;28;20259;-73
2022/09/14 09:53:39;;;;;;;1999.90;999.90;;;;;;;;;;5005646;28;20721;-73
2022/09/14 09:56:07;;;;;;;1999.90;999.90;;;;;;;;;;5006372;28;20261;-73
2022/09/14 09:58:37;;;;;;;1999.90;999.90;;;;;;;;;;5004948;28;20226;-73
2022/09/14 10:01:06;;;;;;;1999.90;999.90;;;;;;;;;;5003021;28;20238;-74
2022/09/14 10:03:40;;;;;;;1999.90;999.90;;;;;;;;;;5004893;28;21155;-74
2022/09/14 10:06:09;;;;;;;1999.90;999.90;;;;;;;;;;5005298;28;20671;-73
2022/09/14 10:08:42;;;;;;;1999.90;999.90;;;;;;;;;;5006058;28;20264;-73
2022/09/14 10:11:24;;;;;;;1999.90;999.90;;;;;;;;;;5007180;28;21066;-73
2022/09/14 10:13:52;;;;;;;1999.90;999.90;;;;;;;;;;5005607;28;20238;-74
2022/09/14 10:16:20;;;;;;;1999.90;999.90;;;;;;;;;;5021510;28;20233;-73
2022/09/14 10:18:50;;;;;;;1999.90;999.90;;;;;;;;;;4987876;28;20321;-73
2022/09/14 10:21:18;;;;;;;1999.90;999.90;;;;;;;;;;4987636;28;20238;-74
2022/09/14 10:23:47;;;;;;;1999.90;999.90;;;;;;;;;;5003028;28;21065;-73
2022/09/14 10:26:19;;;;;;;1999.90;999.90;;;;;;;;;;5004036;28;20230;-74
2022/09/14 10:28:48;;;;;;;1999.90;999.90;;;;;;;;;;5004073;28;20234;-74
2022/09/14 10:31:18;;;;;;;1999.90;999.90;;;;;;;;;;5004567;28;20288;-74
2022/09/14 10:33:46;;;;;;;1999.90;999.90;;;;;;;;;;5003604;28;20973;-74
2022/09/14 10:36:19;;;;;;;1999.90;999.90;;;;;;;;;;5004615;28;20449;-73
2022/09/14 10:38:51;;;;;;;1999.90;999.90;;;;;;;;;;5004133;28;21061;-75
2022/09/14 10:41:23;;;;;;;1999.90;999.90;;;;;;;;;;5004135;28;20317;-74
2022/09/14 10:44:01;;;;;;;1999.90;999.90;;;;;;;;;;5002649;28;20234;-74
2022/09/14 10:46:30;;;;;;;1999.90;999.90;;;;;;;;;;5003849;28;20301;-73
2022/09/14 10:49:18;;;;;;;1999.90;999.90;;;;;;;;;;5007419;28;20763;-73
2022/09/14 10:51:52;;;;;;;1999.90;999.90;;;;;;;;;;5001993;28;20233;-74
2022/09/14 10:54:31;;;;;;;1999.90;999.90;;;;;;;;;;5003962;28;20342;-74
2022/09/14 10:57:04;;;;;;;1999.90;999.90;;;;;;;;;;5020213;28;20683;-74
2022/09/14 10:59:37;;;;;;;1999.90;999.90;;;;;;;;;;5003564;28;20324;-75
2022/09/14 11:02:23;;;;;;;1999.90;999.90;;;;;;;;;;5019657;28;20284;-73
2022/09/14 11:04:57;;;;;;;1999.90;999.90;;;;;;;;;;5004819;28;20253;-74
2022/09/14 11:07:30;;;;;;;1999.90;999.90;;;;;;;;;;5003409;28;20261;-74
2022/09/14 11:10:04;;;;;;;1999.90;999.90;;;;;;;;;;5004979;28;20265;-73
2022/09/14 11:12:35;;;;;;;1999.90;999.90;;;;;;;;;;5004283;28;20233;-75
2022/09/14 11:15:08;;;;;;;1999.90;999.90;;;;;;;;;;5004602;28;20705;-73
2022/09/14 11:17:42;;;;;;;1999.90;999.90;;;;;;;;;;5003275;28;20708;-74
2022/09/14 11:20:15;;;;;;;1999.90;999.90;;;;;;;;;;4988036;28;20265;-74
2022/09/14 11:22:49;;;;;;;1999.90;999.90;;;;;;;;;;5003401;28;20289;-75
2022/09/14 11:25:19;;;;;;;1999.90;999.90;;;;;;;;;;5002926;28;20226;-74
2022/09/14 11:27:49;;;;;;;1999.90;999.90;;;;;;;;;;5003514;28;20453;-74
2022/09/14 11:30:18;;;;;;;1999.90;999.90;;;;;;;;;;5004620;28;20669;-73
2022/09/14 11:32:48;;;;;;;1999.90;999.90;;;;;;;;;;5002577;28;20332;-74
2022/09/14 11:35:18;;;;;;;1999.90;999.90;;;;;;;;;;5003656;28;20226;-74
2022/09/14 11:37:49;;;;;;;1999.90;999.90;;;;;;;;;;5004992;28;20237;-73
2022/09/14 11:40:19;;;;;;;1999.90;999.90;;;;;;;;;;5003743;28;20795;-74
2022/09/14 11:42:50;;;;;;;1999.90;999.90;;;;;;;;;;5004796;28;20225;-74
2022/09/14 11:45:20;;;;;;;1999.90;999.90;;;;;;;;;;5004831;28;20238;-74
2022/09/14 11:47:53;;;;;;;1999.90;999.90;;;;;;;;;;5004718;28;20249;-74
2022/09/14 11:50:22;;;;;;;1999.90;999.90;;;;;;;;;;5007562;28;20248;-74
2022/09/14 11:52:55;;;;;;;1999.90;999.90;;;;;;;;;;5004052;28;20221;-74
2022/09/14 11:55:23;;;;;;;1999.90;999.90;;;;;;;;;;5003798;28;20234;-74
2022/09/14 11:57:52;;;;;;;1999.90;999.90;;;;;;;;;;5003825;28;21068;-75
2022/09/14 12:00:41;;;;;;;1999.90;999.90;;;;;;;;;;5004359;28;20830;-73
2022/09/14 12:03:13;;;;;;;1999.90;999.90;;;;;;;;;;5019506;28;20313;-74
2022/09/14 12:05:43;;;;;;;1999.90;999.90;;;;;;;;;;4987165;28;20226;-73
2022/09/14 12:08:26;;;;;;;1999.90;999.90;;;;;;;;;;5004388;28;20233;-74
2022/09/14 12:11:16;;;;;;;1999.90;999.90;;;;;;;;;;4999668;28;20242;-73
2022/09/14 12:13:43;;;;;;;1999.90;999.90;;;;;;;;;;4970474;28;20238;-75
2022/09/14 12:16:11;;;;;;;1999.90;999.90;;;;;;;;;;5004846;28;21055;-76
2022/09/14 12:18:39;;;;;;;1999.90;999.90;;;;;;;;;;5003583;28;20249;-74
2022/09/14 12:21:17;;;;;;;1999.90;999.90;;;;;;;;;;5003771;28;20792;-73
2022/09/14 12:23:50;;;;;;;1999.90;999.90;;;;;;;;;;5002592;28;20257;-74
2022/09/14 12:26:28;;;;;;;1999.90;999.90;;;;;;;;;;5002599;28;20240;-75
2022/09/14 12:28:56;;;;;;;1999.90;999.90;;;;;;;;;;5002473;28;20229;-73
2022/09/14 12:31:33;;;;;;;1999.90;999.90;;;;;;;;;;5001837;28;20235;-74
2022/09/14 12:34:15;;;;;;;1999.90;999.90;;;;;;;;;;5001574;28;20239;-74
2022/09/14 12:36:57;;;;;;;1999.90;999.90;;;;;;;;;;5002725;28;20292;-73
2022/09/14 12:39:27;;;;;;;1999.90;999.90;;;;;;;;;;5003267;28;20284;-73
2022/09/14 12:42:10;;;;;;;1999.90;999.90;;;;;;;;;;5001249;28;20652;-74
2022/09/14 12:44:39;;;;;;;1999.90;999.90;;;;;;;;;;5002417;28;20244;-73
2022/09/14 12:47:26;;;;;;;1999.90;999.90;;;;;;;;;;5003698;28;20226;-74
2022/09/14 12:49:56;;;;;;;1999.90;999.90;;;;;;;;;;5002594;28;20230;-73
2022/09/14 12:52:33;;;;;;;1999.90;999.90;;;;;;;;;;5005015;28;20252;-73
2022/09/14 12:55:10;;;;;;;1999.90;999.90;;;;;;;;;;5007542;28;20257;-73
2022/09/14 12:57:42;;;;;;;1999.90;999.90;;;;;;;;;;5007194;28;20268;-75
2022/09/14 13:00:12;;;;;;;1999.90;999.90;;;;;;;;;;5006977;28;20675;-74
2022/09/14 13:03:01;;;;;;;1999.90;999.90;;;;;;;;;;5004265;28;20234;-74
2022/09/14 13:05:30;;;;;;;1999.90;999.90;;;;;;;;;;5006313;28;20230;-73
2022/09/14 13:07:58;;;;;;;1999.90;999.90;;;;;;;;;;5004859;28;20258;-74
2022/09/14 13:10:30;;;;;;;1999.90;999.90;;;;;;;;;;5006303;28;20234;-73
2022/09/14 13:13:00;;;;;;;1999.90;999.90;;;;;;;;;;5006276;28;20729;-75
2022/09/14 13:15:29;;;;;;;1999.90;999.90;;;;;;;;;;5007059;28;20226;-75
2022/09/14 13:17:58;;;;;;;1999.90;999.90;;;;;;;;;;5006622;28;20234;-73
2022/09/14 13:20:27;;;;;;;1999.90;999.90;;;;;;;;;;5006770;28;20247;-75
2022/09/14 13:22:55;;;;;;;1999.90;999.90;;;;;;;;;;5005809;28;20225;-73
2022/09/14 13:25:28;;;;;;;1999.90;999.90;;;;;;;;;;5004692;28;20755;-74
2022/09/14 13:27:56;;;;;;;1999.90;999.90;;;;;;;;;;5004319;28;20225;-75
2022/09/14 13:30:25;;;;;;;1999.90;999.90;;;;;;;;;;5006639;28;20289;-72
2022/09/14 13:32:55;;;;;;;1999.90;999.90;;;;;;;;;;5005709;28;20678;-73
2022/09/14 13:35:27;;;;;;;1999.90;999.90;;;;;;;;;;5005710;28;20254;-73
2022/09/14 13:37:54;;;;;;;1999.90;999.90;;;;;;;;;;4985578;28;20226;-73
2022/09/14 13:40:23;;;;;;;1999.90;999.90;;;;;;;;;;5019520;28;20313;-73
2022/09/14 13:42:53;;;;;;;1999.90;999.90;;;;;;;;;;5004230;28;20234;-73
2022/09/14 13:45:21;;;;;;;1999.90;999.90;;;;;;;;;;5004576;28;20288;-73
2022/09/14 13:47:50;;;;;;;1999.90;999.90;;;;;;;;;;5007240;28;20345;-73
2022/09/14 13:50:17;;;;;;;1999.90;999.90;;;;;;;;;;5021331;28;20245;-74
2022/09/14 13:52:45;;;;;;;1999.90;999.90;;;;;;;;;;5006001;28;20388;-74
2022/09/14 13:55:42;;;;;;;1999.90;999.90;;;;;;;;;;5006562;28;20276;-73
2022/09/14 13:58:21;;;;;;;1999.90;999.90;;;;;;;;;;5005703;28;20317;-72
2022/09/14 14:00:54;;;;;;;1999.90;999.90;;;;;;;;;;5004908;28;20248;-73